createdAt,value
2022-11-23T00:01:34.337Z,5.47
2022-11-23T00:04:04.767Z,6.72
2022-11-23T00:06:32.865Z,6.45
2022-11-23T00:09:00.172Z,6.13
2022-11-23T00:11:28.809Z,6.75
2022-11-23T00:13:57.172Z,6.63
2022-11-23T00:16:28.929Z,6.95
2022-11-23T00:19:00.007Z,7.15
2022-11-23T00:21:30.185Z,5.15
2022-11-23T00:23:57.858Z,6.15
2022-11-23T00:26:25.064Z,6.10
2022-11-23T00:28:55.557Z,6.70
2022-11-23T00:31:25.621Z,6.70
2022-11-23T00:33:55.371Z,6.43
2022-11-23T00:36:24.253Z,6.18
2022-11-23T00:38:54.587Z,6.18
2022-11-23T00:41:24.762Z,6.43
2022-11-23T00:43:52.623Z,6.50
2022-11-23T00:46:25.485Z,7.22
2022-11-23T00:48:55.362Z,6.57
2022-11-23T00:51:25.631Z,6.93
2022-11-23T00:53:53.608Z,7.03
2022-11-23T00:56:21.157Z,6.93
2022-11-23T00:58:50.935Z,7.00
2022-11-23T01:01:19.690Z,6.57
2022-11-23T01:03:49.015Z,6.82
2022-11-23T01:06:19.174Z,6.85
2022-11-23T01:08:58.291Z,7.00
2022-11-23T01:11:28.610Z,7.07
2022-11-23T01:13:57.026Z,7.03
2022-11-23T01:16:29.503Z,6.97
2022-11-23T01:18:58.992Z,7.28
2022-11-23T01:21:28.156Z,7.65
2022-11-23T01:23:56.503Z,7.05
2022-11-23T01:26:24.476Z,7.25
2022-11-23T01:28:52.033Z,6.97
2022-11-23T01:31:21.648Z,7.10
2022-11-23T01:33:53.478Z,7.82
2022-11-23T01:36:23.604Z,7.20
2022-11-23T01:38:50.809Z,6.22
2022-11-23T01:41:24.152Z,8.52
2022-11-23T01:43:52.847Z,6.07
2022-11-23T01:46:20.568Z,7.90
2022-11-23T01:49:07.157Z,6.90
2022-11-23T01:51:40.102Z,6.97
2022-11-23T01:54:15.351Z,6.43
2022-11-23T01:56:44.802Z,6.35
2022-11-23T01:59:15.632Z,7.30
2022-11-23T02:01:43.557Z,7.40
2022-11-23T02:04:21.296Z,7.22
2022-11-23T02:06:48.913Z,7.50
2022-11-23T02:09:17.107Z,7.63
2022-11-23T02:11:44.909Z,8.90
2022-11-23T02:14:12.518Z,8.80
2022-11-23T02:16:40.709Z,9.43
2022-11-23T02:19:16.693Z,9.02
2022-11-23T02:21:46.318Z,8.98
2022-11-23T02:24:40.145Z,9.13
2022-11-23T02:27:07.982Z,7.38
2022-11-23T02:29:35.717Z,8.83
2022-11-23T02:32:03.299Z,7.90
2022-11-23T02:34:31.115Z,7.78
2022-11-23T02:37:01.161Z,6.57
2022-11-23T02:39:38.068Z,7.57
2022-11-23T02:42:05.986Z,7.30
2022-11-23T02:44:46.052Z,7.47
2022-11-23T02:47:13.536Z,7.50
2022-11-23T02:49:42.278Z,8.30
2022-11-23T02:52:09.714Z,8.00
2022-11-23T02:54:37.069Z,8.07
2022-11-23T02:57:05.599Z,8.32
2022-11-23T02:59:34.337Z,7.95
2022-11-23T03:02:04.406Z,8.48
2022-11-23T03:04:31.890Z,8.93
2022-11-23T03:06:59.793Z,11.40
2022-11-23T03:09:28.279Z,9.68
2022-11-23T03:11:55.918Z,9.00
2022-11-23T03:14:24.280Z,9.52
2022-11-23T03:16:51.515Z,9.73
2022-11-23T03:19:19.369Z,9.70
2022-11-23T03:21:46.697Z,8.93
2022-11-23T03:24:14.271Z,10.45
2022-11-23T03:26:41.661Z,9.30
2022-11-23T03:29:09.173Z,10.10
2022-11-23T03:31:36.873Z,8.90
2022-11-23T03:34:04.261Z,9.52
2022-11-23T03:36:31.615Z,9.10
2022-11-23T03:38:59.280Z,8.55
2022-11-23T03:41:26.512Z,8.80
2022-11-23T03:43:53.826Z,8.52
2022-11-23T03:46:20.989Z,9.18
2022-11-23T03:48:48.638Z,9.25
2022-11-23T03:51:16.029Z,8.73
2022-11-23T03:53:43.466Z,8.65
2022-11-23T03:56:10.906Z,8.30
2022-11-23T03:58:39.039Z,8.68
2022-11-23T04:01:06.281Z,8.65
2022-11-23T04:03:34.575Z,8.75
2022-11-23T04:06:01.977Z,7.50
2022-11-23T04:08:29.703Z,7.03
2022-11-23T04:10:58.301Z,7.72
2022-11-23T04:13:25.578Z,7.85
2022-11-23T04:15:52.776Z,7.75
2022-11-23T04:18:21.047Z,8.38
2022-11-23T04:20:48.300Z,8.30
2022-11-23T04:23:15.930Z,8.43
2022-11-23T04:25:43.248Z,8.52
2022-11-23T04:28:10.508Z,6.90
2022-11-23T04:30:37.910Z,9.98
2022-11-23T04:33:05.183Z,8.57
2022-11-23T04:35:32.542Z,8.65
2022-11-23T04:38:01.866Z,8.20
2022-11-23T04:40:31.624Z,7.65
2022-11-23T04:43:01.895Z,7.97
2022-11-23T04:45:29.754Z,8.43
2022-11-23T04:47:57.105Z,8.02
2022-11-23T04:50:24.471Z,8.95
2022-11-23T04:52:51.783Z,8.27
2022-11-23T04:55:19.074Z,8.38
2022-11-23T04:57:46.271Z,8.30
2022-11-23T05:00:15.473Z,9.18
2022-11-23T05:02:43.190Z,8.23
2022-11-23T05:05:10.706Z,7.68
2022-11-23T05:07:38.932Z,9.52
2022-11-23T05:10:06.892Z,9.45
2022-11-23T05:12:36.701Z,9.27
2022-11-23T05:15:05.526Z,8.95
2022-11-23T05:17:34.314Z,9.02
2022-11-23T05:20:01.845Z,8.88
2022-11-23T05:22:31.150Z,8.63
2022-11-23T05:24:59.039Z,9.57
2022-11-23T05:27:26.732Z,9.70
2022-11-23T05:29:55.885Z,9.27
2022-11-23T05:32:23.083Z,9.77
2022-11-23T05:34:50.373Z,8.10
2022-11-23T05:37:45.835Z,7.88
2022-11-23T05:40:13.558Z,8.68
2022-11-23T05:42:43.156Z,7.95
2022-11-23T05:45:11.848Z,8.65
2022-11-23T05:47:40.281Z,8.68
2022-11-23T05:50:08.266Z,9.93
2022-11-23T05:52:36.462Z,11.13
2022-11-23T05:55:04.135Z,10.35
2022-11-23T05:57:33.728Z,10.00
2022-11-23T06:00:03.299Z,7.65
2022-11-23T06:02:30.789Z,9.38
2022-11-23T06:04:57.950Z,9.82
2022-11-23T06:07:25.161Z,10.90
2022-11-23T06:09:52.505Z,10.25
2022-11-23T06:12:21.374Z,9.35
2022-11-23T06:14:51.284Z,9.45
2022-11-23T06:17:18.504Z,9.35
2022-11-23T06:19:47.655Z,8.73
2022-11-23T06:22:17.882Z,8.60
2022-11-23T06:24:51.681Z,8.48
2022-11-23T06:27:20.142Z,9.68
2022-11-23T06:29:47.479Z,9.73
2022-11-23T06:32:16.455Z,10.23
2022-11-23T06:34:44.129Z,9.77
2022-11-23T06:37:13.468Z,9.85
2022-11-23T06:39:41.386Z,10.35
2022-11-23T06:42:37.282Z,9.68
2022-11-23T06:44:58.245Z,10.32
2022-11-23T06:47:26.574Z,10.10
2022-11-23T06:49:54.275Z,9.30
2022-11-23T06:52:21.887Z,10.20
2022-11-23T06:54:49.202Z,10.20
2022-11-23T06:57:16.486Z,10.65
2022-11-23T06:59:45.673Z,8.68
2022-11-23T07:02:14.884Z,9.60
2022-11-23T07:04:43.255Z,9.13
2022-11-23T07:07:10.857Z,9.63
2022-11-23T07:09:38.370Z,9.07
2022-11-23T07:12:05.904Z,8.13
2022-11-23T07:14:33.154Z,8.95
2022-11-23T07:17:00.406Z,10.30
2022-11-23T07:19:27.638Z,7.90
2022-11-23T07:21:54.946Z,8.95
2022-11-23T07:24:22.124Z,9.63
2022-11-23T07:26:52.477Z,13.15
2022-11-23T07:29:21.169Z,10.35
2022-11-23T07:31:48.656Z,11.10
2022-11-23T07:34:15.791Z,11.05
2022-11-23T07:36:43.115Z,10.48
2022-11-23T07:39:10.404Z,11.07
2022-11-23T07:41:37.894Z,11.25
2022-11-23T07:44:06.118Z,11.15
2022-11-23T07:46:33.451Z,10.32
2022-11-23T07:49:02.387Z,11.40
2022-11-23T07:51:30.192Z,10.38
2022-11-23T07:53:57.729Z,10.25
2022-11-23T07:56:25.096Z,10.18
2022-11-23T07:58:52.290Z,11.00
2022-11-23T08:01:19.979Z,10.38
2022-11-23T08:03:49.328Z,10.07
2022-11-23T08:06:17.363Z,9.48
2022-11-23T08:08:46.186Z,10.52
2022-11-23T08:11:17.091Z,10.05
2022-11-23T08:13:45.035Z,11.10
2022-11-23T08:16:12.527Z,9.32
2022-11-23T08:18:39.904Z,9.05
2022-11-23T08:21:07.401Z,8.35
2022-11-23T08:23:34.898Z,10.02
2022-11-23T08:26:07.805Z,9.77
2022-11-23T08:28:40.036Z,9.35
2022-11-23T08:31:10.055Z,12.48
2022-11-23T08:33:38.616Z,10.10
2022-11-23T08:36:07.650Z,9.38
2022-11-23T08:38:35.314Z,10.98
2022-11-23T08:41:03.975Z,10.50
2022-11-23T08:43:31.919Z,10.00
2022-11-23T08:46:05.570Z,10.55
2022-11-23T08:48:34.112Z,8.55
2022-11-23T08:51:01.562Z,9.38
2022-11-23T08:53:29.333Z,9.90
2022-11-23T08:56:00.235Z,9.35
2022-11-23T08:58:27.621Z,9.18
2022-11-23T09:00:56.063Z,8.93
2022-11-23T09:03:24.012Z,9.07
2022-11-23T09:05:51.542Z,9.80
2022-11-23T09:08:19.201Z,10.82
2022-11-23T09:10:46.507Z,9.35
2022-11-23T09:13:14.247Z,9.48
2022-11-23T09:15:41.486Z,10.00
2022-11-23T09:18:10.274Z,8.80
2022-11-23T09:20:39.943Z,9.10
2022-11-23T09:23:13.725Z,9.27
2022-11-23T09:25:43.279Z,10.02
2022-11-23T09:28:12.623Z,10.38
2022-11-23T09:30:39.924Z,10.73
2022-11-23T09:33:10.276Z,10.98
2022-11-23T09:35:43.450Z,14.63
2022-11-23T09:38:11.477Z,10.57
2022-11-23T09:40:42.883Z,9.98
2022-11-23T09:46:42.480Z,9.73
2022-11-23T09:49:16.742Z,10.15
2022-11-23T09:51:45.128Z,10.70
2022-11-23T09:54:21.989Z,10.40
2022-11-23T09:56:51.454Z,11.48
2022-11-23T09:59:31.145Z,11.98
2022-11-23T10:01:59.286Z,13.38
2022-11-23T10:04:35.559Z,10.80
2022-11-23T10:07:43.347Z,10.05
2022-11-23T10:10:30.290Z,10.10
2022-11-23T10:13:17.277Z,10.10
2022-11-23T10:16:04.057Z,11.43
2022-11-23T10:18:58.404Z,10.38
2022-11-23T10:22:00.272Z,10.55
2022-11-23T10:24:38.238Z,10.52
2022-11-23T10:27:18.225Z,11.45
2022-11-23T10:29:46.820Z,10.25
2022-11-23T10:32:32.760Z,10.82
2022-11-23T10:35:04.965Z,10.45
2022-11-23T10:37:36.007Z,9.63
2022-11-23T10:40:05.419Z,9.75
2022-11-23T10:42:54.688Z,10.13
2022-11-23T10:45:26.953Z,9.15
2022-11-23T10:48:01.064Z,10.65
2022-11-23T10:50:37.556Z,9.65
2022-11-23T10:53:30.954Z,9.75
2022-11-23T10:55:59.440Z,10.23
2022-11-23T10:58:31.755Z,9.20
2022-11-23T11:01:02.829Z,12.70
2022-11-23T11:03:36.539Z,9.63
2022-11-23T11:06:09.188Z,11.05
2022-11-23T11:09:18.107Z,10.57
2022-11-23T11:11:55.241Z,8.98
2022-11-23T11:14:24.731Z,9.68
2022-11-23T11:16:58.403Z,11.13
2022-11-23T11:19:32.860Z,10.35
2022-11-23T11:22:23.158Z,10.55
2022-11-23T11:24:56.965Z,11.02
2022-11-23T11:27:24.798Z,10.90
2022-11-23T11:29:56.139Z,11.13
2022-11-23T11:32:45.953Z,11.20
2022-11-23T11:35:25.594Z,16.15
2022-11-23T11:37:56.339Z,14.57
2022-11-23T11:40:49.414Z,13.18
2022-11-23T11:43:34.702Z,12.80
2022-11-23T11:46:31.140Z,11.88
2022-11-23T11:49:41.315Z,12.35
2022-11-23T11:52:29.223Z,11.40
2022-11-23T11:55:05.489Z,12.60
2022-11-23T11:57:56.416Z,13.35
2022-11-23T12:00:23.822Z,15.32
2022-11-23T12:03:12.335Z,14.95
2022-11-23T12:05:40.034Z,13.85
2022-11-23T12:08:17.325Z,13.38
2022-11-23T12:10:54.576Z,12.18
2022-11-23T12:13:29.556Z,12.45
2022-11-23T12:16:02.185Z,12.02
2022-11-23T12:18:51.419Z,15.20
2022-11-23T12:21:43.158Z,16.38
2022-11-23T12:24:35.714Z,15.48
2022-11-23T12:27:28.207Z,12.30
